Terminal Aerodrome Forecast
Issued by NWS

Home | Current Version | Previous Version | Text Only | Print | Product List | Glossary On
Versions: 1 2 3 4 5 6 7 8 9 10 11 12
000
FTUS46 KLOX 210500
TAFWJF
TAF
KWJF 210534Z 2106/2206 23016KT P6SM SKC
     FM211000 25010KT P6SM SKC
     FM212100 23020G28KT P6SM VCSH SCT070 SCT120 SCT250
     FM220300 24016KT P6SM FEW120 SCT250=

USA.gov is the U.S. government's official web portal to all federal, state and local government web resources and services.